Time;durP1;ratioP1;P1;durP2;ratioP2;P2;SDS_P1;SDS_P2;PMS_P1;PMS_P2;Temp;Humidity;BMP_temperature;BMP_pressure;BME280_temperature;BME280_humidity;BME280_pressure;Samples;Min_cycle;Max_cycle;Signal;HPM_P1;HPM_P2
2022/06/01 00:01:00;;;;;;;;;;;;;;;19.20;100.00;97661.63;5083068;28;19928;-59
2022/06/01 00:03:29;;;;;;;;;;;;;;;19.43;100.00;97667.63;5082090;28;19987;-58
2022/06/01 00:05:55;;;;;;;;;;;;;;;19.57;100.00;97677.09;5079651;28;20431;-58
2022/06/01 00:08:22;;;;;;;;;;;;;;;19.66;100.00;97685.97;5079954;28;19956;-58
2022/06/01 00:10:48;;;;;;;;;;;;;;;19.66;100.00;97679.75;5083186;28;19954;-59
2022/06/01 00:13:14;;;;;;;;;;;;;;;19.65;100.00;97684.38;5080159;28;19924;-59
2022/06/01 00:15:41;;;;;;;;;;;;;;;19.35;100.00;97691.66;5079455;28;19936;-59
2022/06/01 00:18:09;;;;;;;;;;;;;;;19.42;100.00;97677.66;5062125;28;19989;-59
2022/06/01 00:20:36;;;;;;;;;;;;;;;19.33;100.00;97683.06;5081803;28;19952;-59
2022/06/01 00:23:02;;;;;;;;;;;;;;;19.38;100.00;97674.75;5083106;28;19983;-59
2022/06/01 00:25:29;;;;;;;;;;;;;;;19.35;100.00;97680.81;5081807;28;19984;-59
2022/06/01 00:27:55;;;;;;;;;;;;;;;19.09;100.00;97672.03;5079480;28;19996;-58
2022/06/01 00:30:23;;;;;;;;;;;;;;;18.85;100.00;97677.16;5079664;28;20615;-58
2022/06/01 00:32:49;;;;;;;;;;;;;;;18.86;100.00;97676.06;5082853;28;19925;-58
2022/06/01 00:35:18;;;;;;;;;;;;;;;18.50;100.00;97676.44;5065056;28;19980;-58
2022/06/01 00:37:44;;;;;;;;;;;;;;;18.05;100.00;97664.31;5078944;28;20548;-58
2022/06/01 00:40:12;;;;;;;;;;;;;;;17.68;100.00;97682.69;5079104;28;19992;-58
2022/06/01 00:42:39;;;;;;;;;;;;;;;17.85;100.00;97689.25;5083709;28;19959;-59
2022/06/01 00:45:07;;;;;;;;;;;;;;;17.89;100.00;97690.97;5077112;28;19924;-59
2022/06/01 00:47:33;;;;;;;;;;;;;;;18.35;100.00;97690.41;5080647;28;19925;-58
2022/06/01 00:50:03;;;;;;;;;;;;;;;18.47;100.00;97689.78;5078947;28;19980;-58
2022/06/01 00:52:40;;;;;;;;;;;;;;;18.75;100.00;97689.13;5080379;28;20015;-58
2022/06/01 00:55:09;;;;;;;;;;;;;;;19.00;100.00;97703.69;5081643;28;19925;-58
2022/06/01 00:57:36;;;;;;;;;;;;;;;19.13;100.00;97691.09;5079749;28;19925;-59
2022/06/01 01:00:04;;;;;;;;;;;;;;;19.18;100.00;97694.44;5078771;28;19932;-58
2022/06/01 01:02:31;;;;;;;;;;;;;;;18.90;100.00;97687.84;5080002;28;19932;-58
2022/06/01 01:04:57;;;;;;;;;;;;;;;18.85;100.00;97690.69;5082040;28;20015;-58
2022/06/01 01:07:26;;;;;;;;;;;;;;;19.00;100.00;97684.75;5081508;28;19988;-58
2022/06/01 01:09:53;;;;;;;;;;;;;;;19.12;100.00;97682.19;5078663;28;19924;-58
2022/06/01 01:12:20;;;;;;;;;;;;;;;19.24;100.00;97689.63;5083203;28;19925;-58
2022/06/01 01:14:46;;;;;;;;;;;;;;;19.33;100.00;97683.06;5078584;28;19991;-58
2022/06/01 01:17:13;;;;;;;;;;;;;;;19.33;100.00;97684.97;5078471;28;19925;-58
2022/06/01 01:19:42;;;;;;;;;;;;;;;19.35;100.00;97688.16;5081116;28;20642;-58
2022/06/01 01:22:20;;;;;;;;;;;;;;;19.04;100.00;97685.72;5082042;28;19925;-58
2022/06/01 01:24:51;;;;;;;;;;;;;;;18.98;100.00;97692.41;5078585;28;19979;-59
2022/06/01 01:27:19;;;;;;;;;;;;;;;18.90;100.00;97693.25;5078575;28;19921;-58
2022/06/01 01:29:46;;;;;;;;;;;;;;;19.00;100.00;97686.69;5070128;28;20008;-59
2022/06/01 01:32:14;;;;;;;;;;;;;;;19.08;100.00;97686.66;5070075;28;19988;-58
2022/06/01 01:34:41;;;;;;;;;;;;;;;18.96;100.00;97693.88;5069904;28;19956;-59
2022/06/01 01:37:09;;;;;;;;;;;;;;;19.08;100.00;97707.53;5069983;28;19925;-59
2022/06/01 01:39:37;;;;;;;;;;;;;;;19.19;100.00;97698.72;5069604;28;19929;-59
2022/06/01 01:42:06;;;;;;;;;;;;;;;19.22;100.00;97703.47;5074963;28;20011;-59
2022/06/01 01:44:39;;;;;;;;;;;;;;;18.99;100.00;97685.91;5083460;28;19921;-59
2022/06/01 01:47:05;;;;;;;;;;;;;;;19.06;100.00;97683.50;5081891;28;19956;-58
2022/06/01 01:49:33;;;;;;;;;;;;;;;19.14;100.00;97679.97;5079780;28;19984;-59
2022/06/01 01:52:02;;;;;;;;;;;;;;;19.19;100.00;97693.31;5078155;28;19987;-58
2022/06/01 01:54:35;;;;;;;;;;;;;;;19.21;100.00;97696.50;5061536;28;19924;-59
2022/06/01 01:57:08;;;;;;;;;;;;;;;19.29;100.00;97703.78;5081449;28;20007;-58
2022/06/01 01:59:43;;;;;;;;;;;;;;;19.29;100.00;97703.78;5079645;28;19924;-59
2022/06/01 02:02:13;;;;;;;;;;;;;;;19.33;100.00;97704.75;5078056;28;19984;-59
2022/06/01 02:07:32;;;;;;;;;;;;;;;19.26;100.00;97699.03;5084108;28;19920;-59
2022/06/01 02:12:52;;;;;;;;;;;;;;;19.16;100.00;97693.94;5064196;28;19948;-59
2022/06/01 02:15:23;;;;;;;;;;;;;;;19.14;100.00;97695.41;5081484;28;19935;-59
2022/06/01 02:17:51;;;;;;;;;;;;;;;19.14;100.00;97684.56;5081565;28;19951;-59
2022/06/01 02:20:20;;;;;;;;;;;;;;;19.11;100.00;97691.44;5081711;28;19927;-58
2022/06/01 02:22:48;;;;;;;;;;;;;;;19.08;100.00;97692.06;5081495;28;20012;-59
2022/06/01 02:25:14;;;;;;;;;;;;;;;19.08;100.00;97692.06;5081737;28;19925;-58
2022/06/01 02:27:42;;;;;;;;;;;;;;;19.06;100.00;97688.91;5083493;28;20078;-58
2022/06/01 02:30:10;;;;;;;;;;;;;;;19.16;100.00;97696.66;5084099;28;20011;-59
2022/06/01 02:32:38;;;;;;;;;;;;;;;19.21;100.00;97701.91;5081573;28;19927;-59
2022/06/01 02:35:06;;;;;;;;;;;;;;;19.06;100.00;97694.31;5080345;28;19980;-59
2022/06/01 02:37:34;;;;;;;;;;;;;;;18.48;100.00;97699.44;5081800;28;19984;-58
2022/06/01 02:40:01;;;;;;;;;;;;;;;18.64;100.00;97706.78;5083570;28;19948;-58
2022/06/01 02:42:28;;;;;;;;;;;;;;;18.77;100.00;97703.13;5082402;28;19987;-58
2022/06/01 02:44:54;;;;;;;;;;;;;;;18.91;100.00;97702.94;5076947;28;19930;-59
2022/06/01 02:47:20;;;;;;;;;;;;;;;18.93;100.00;97714.25;5084085;28;19928;-59
2022/06/01 02:49:48;;;;;;;;;;;;;;;18.94;100.00;97729.34;5080407;28;19980;-59
2022/06/01 02:52:14;;;;;;;;;;;;;;;18.98;100.00;97724.88;5080726;28;19988;-58
2022/06/01 02:54:41;;;;;;;;;;;;;;;19.07;100.00;97724.88;5083432;28;20003;-58
2022/06/01 02:57:08;;;;;;;;;;;;;;;18.82;100.00;97721.91;5084162;28;19921;-58
2022/06/01 02:59:34;;;;;;;;;;;;;;;18.12;100.00;97719.47;5082030;28;19980;-58
2022/06/01 03:02:01;;;;;;;;;;;;;;;18.25;100.00;97729.38;5080520;28;19963;-59
2022/06/01 03:04:27;;;;;;;;;;;;;;;18.42;100.00;97717.75;5081496;28;19953;-58
2022/06/01 03:06:55;;;;;;;;;;;;;;;18.46;100.00;97715.22;5083704;28;20328;-59
2022/06/01 03:09:22;;;;;;;;;;;;;;;18.64;100.00;97719.53;5083556;28;19935;-59
2022/06/01 03:11:48;;;;;;;;;;;;;;;18.75;100.00;97724.28;5080533;28;19925;-59
2022/06/01 03:14:14;;;;;;;;;;;;;;;18.84;100.00;97718.88;5076196;28;20520;-59
2022/06/01 03:16:41;;;;;;;;;;;;;;;18.83;100.00;97726.19;5082222;28;19935;-58
2022/06/01 03:19:07;;;;;;;;;;;;;;;18.85;100.00;97723.97;5065771;28;19932;-58
2022/06/01 03:21:34;;;;;;;;;;;;;;;18.82;100.00;97731.91;5081784;28;19988;-58
2022/06/01 03:24:02;;;;;;;;;;;;;;;18.85;100.00;97731.28;5080265;28;19959;-59
2022/06/01 03:26:29;;;;;;;;;;;;;;;18.88;100.00;97722.50;5081264;28;20435;-59
2022/06/01 03:28:55;;;;;;;;;;;;;;;18.93;100.00;97724.28;5083661;28;19925;-59
2022/06/01 03:31:22;;;;;;;;;;;;;;;18.91;100.00;97723.81;5083653;28;19931;-59
2022/06/01 03:33:48;;;;;;;;;;;;;;;18.82;100.00;97731.91;5080336;28;19924;-59
2022/06/01 03:36:15;;;;;;;;;;;;;;;18.76;100.00;97728.59;5080282;28;19924;-59
2022/06/01 03:38:44;;;;;;;;;;;;;;;18.69;100.00;97725.56;5082973;28;19948;-59
2022/06/01 03:41:12;;;;;;;;;;;;;;;18.69;100.00;97725.56;5083652;28;19984;-58
2022/06/01 03:46:22;;;;;;;;;;;;;;;18.75;100.00;97729.69;5079078;28;19983;-59
2022/06/01 03:48:49;;;;;;;;;;;;;;;18.77;100.00;97723.97;5071310;28;19988;-58
2022/06/01 03:51:15;;;;;;;;;;;;;;;18.81;100.00;97730.34;5071580;28;19935;-59
2022/06/01 03:53:42;;;;;;;;;;;;;;;18.83;100.00;97734.31;5071262;28;19979;-59
2022/06/01 03:56:09;;;;;;;;;;;;;;;18.76;100.00;97744.03;5071494;28;19971;-59
2022/06/01 03:58:38;;;;;;;;;;;;;;;18.74;100.00;97735.44;5071268;28;19931;-59
2022/06/01 04:01:05;;;;;;;;;;;;;;;18.60;100.00;97742.94;5071317;28;19976;-59
2022/06/01 04:03:31;;;;;;;;;;;;;;;18.58;100.00;97743.25;5071154;28;19932;-58
2022/06/01 04:05:58;;;;;;;;;;;;;;;18.70;100.00;97756.13;5071194;28;19984;-60
2022/06/01 04:08:24;;;;;;;;;;;;;;;18.77;100.00;97759.16;5071497;28;19959;-58
2022/06/01 04:10:51;;;;;;;;;;;;;;;18.78;100.00;97766.94;5071372;28;19935;-59
2022/06/01 04:13:17;;;;;;;;;;;;;;;18.82;100.00;97769.78;5083768;28;19952;-59
2022/06/01 04:15:45;;;;;;;;;;;;;;;18.81;100.00;97768.22;5079910;28;20625;-59
2022/06/01 04:18:11;;;;;;;;;;;;;;;18.82;100.00;97759.78;5079432;28;19927;-59
2022/06/01 04:20:37;;;;;;;;;;;;;;;18.84;100.00;97746.75;5081879;28;19981;-59
2022/06/01 04:23:04;;;;;;;;;;;;;;;18.50;100.00;97746.75;5082808;28;19984;-59
2022/06/01 04:25:31;;;;;;;;;;;;;;;17.83;100.00;97754.38;5081594;28;19931;-58
2022/06/01 04:27:57;;;;;;;;;;;;;;;17.74;100.00;97756.25;5079062;28;19959;-59
2022/06/01 04:30:23;;;;;;;;;;;;;;;17.55;100.00;97763.78;5079205;28;19921;-59
2022/06/01 04:32:52;;;;;;;;;;;;;;;17.45;100.00;97762.16;5082657;28;19931;-58
2022/06/01 04:35:19;;;;;;;;;;;;;;;17.73;100.00;97771.66;5082309;28;19928;-58
2022/06/01 04:37:46;;;;;;;;;;;;;;;17.75;100.00;97768.66;5070175;28;19920;-58
2022/06/01 04:40:16;;;;;;;;;;;;;;;17.76;100.00;97778.38;5070477;28;19963;-58
2022/06/01 04:42:43;;;;;;;;;;;;;;;17.87;100.00;97771.56;5070221;28;19966;-58
2022/06/01 04:45:10;;;;;;;;;;;;;;;18.12;100.00;97767.34;5077003;28;19931;-58
2022/06/01 04:47:37;;;;;;;;;;;;;;;18.26;100.00;97778.78;5079499;28;19996;-58
2022/06/01 04:50:05;;;;;;;;;;;;;;;18.34;100.00;97776.13;5078560;28;19949;-58
2022/06/01 04:52:31;;;;;;;;;;;;;;;17.86;100.00;97783.47;5079958;28;19980;-59
2022/06/01 04:54:57;;;;;;;;;;;;;;;17.35;100.00;97784.03;5081870;28;19988;-58
2022/06/01 04:57:24;;;;;;;;;;;;;;;17.11;100.00;97792.44;5081655;28;19959;-58
2022/06/01 04:59:50;;;;;;;;;;;;;;;17.04;100.00;97789.38;5078536;28;19931;-58
2022/06/01 05:02:17;;;;;;;;;;;;;;;16.78;100.00;97791.09;5078732;28;19960;-58
2022/06/01 05:04:43;;;;;;;;;;;;;;;16.91;100.00;97784.84;5081601;28;19968;-59
2022/06/01 05:07:14;;;;;;;;;;;;;;;17.38;100.00;97780.69;5081802;28;19931;-58
2022/06/01 05:09:40;;;;;;;;;;;;;;;17.40;100.00;97783.06;5078883;28;19959;-58
2022/06/01 05:12:07;;;;;;;;;;;;;;;17.36;100.00;97785.59;5081083;28;19996;-58
2022/06/01 05:14:33;;;;;;;;;;;;;;;16.91;100.00;97786.75;5081774;28;20023;-58
2022/06/01 05:17:00;;;;;;;;;;;;;;;16.68;100.00;97783.25;5081633;28;19980;-58
2022/06/01 05:19:27;;;;;;;;;;;;;;;16.77;100.00;97786.81;5080370;28;19928;-58
2022/06/01 05:21:53;;;;;;;;;;;;;;;17.18;100.00;97776.59;5078125;28;19931;-58
2022/06/01 05:24:21;;;;;;;;;;;;;;;17.64;100.00;97778.16;5078011;28;19931;-58
2022/06/01 05:26:47;;;;;;;;;;;;;;;17.79;100.00;97775.03;5069716;28;19928;-58
2022/06/01 05:29:15;;;;;;;;;;;;;;;17.92;100.00;97774.09;5069693;28;19947;-59
2022/06/01 05:31:42;;;;;;;;;;;;;;;18.14;100.00;97768.59;5069738;28;19929;-59
2022/06/01 05:34:08;;;;;;;;;;;;;;;17.55;100.00;97774.59;5070084;28;19984;-59
2022/06/01 05:36:35;;;;;;;;;;;;;;;17.46;100.00;97785.34;5069654;28;19932;-58
2022/06/01 05:39:01;;;;;;;;;;;;;;;17.75;100.00;97784.88;5069667;28;19925;-58
2022/06/01 05:41:29;;;;;;;;;;;;;;;17.65;100.00;97791.34;5072656;28;19960;-58
2022/06/01 05:43:55;;;;;;;;;;;;;;;17.45;100.00;97793.75;5086595;28;19928;-58
2022/06/01 05:46:22;;;;;;;;;;;;;;;17.62;100.00;97796.56;5082289;28;19924;-58
2022/06/01 05:48:48;;;;;;;;;;;;;;;18.02;100.00;97783.84;5085188;28;19964;-58
2022/06/01 05:51:15;;;;;;;;;;;;;;;18.31;100.00;97781.38;5085078;28;19985;-59
2022/06/01 05:53:41;;;;;;;;;;;;;;;18.58;100.00;97788.41;5082265;28;19955;-58
2022/06/01 05:56:08;;;;;;;;;;;;;;;18.54;100.00;97787.44;5081837;28;19921;-58
2022/06/01 05:58:36;;;;;;;;;;;;;;;18.67;100.00;97781.09;5083549;28;19927;-58
2022/06/01 06:01:03;;;;;;;;;;;;;;;18.40;100.00;97779.47;5085146;28;19924;-58
2022/06/01 06:03:32;;;;;;;;;;;;;;;18.07;100.00;97786.41;5083900;28;19931;-58
2022/06/01 06:06:15;;;;;;;;;;;;;;;17.55;100.00;97785.41;5081627;28;19932;-58
2022/06/01 06:08:42;;;;;;;;;;;;;;;17.21;100.00;97781.38;5084408;28;20015;-59
2022/06/01 06:11:09;;;;;;;;;;;;;;;17.23;100.00;97783.78;5085107;28;19992;-59
2022/06/01 06:13:37;;;;;;;;;;;;;;;17.38;100.00;97786.09;5087642;28;19988;-59
2022/06/01 06:16:04;;;;;;;;;;;;;;;17.45;100.00;97799.97;5081379;28;20421;-57
2022/06/01 06:18:31;;;;;;;;;;;;;;;17.59;100.00;97797.19;5082644;28;19925;-57
2022/06/01 06:20:57;;;;;;;;;;;;;;;17.35;100.00;97799.41;5084868;28;19929;-57
2022/06/01 06:23:24;;;;;;;;;;;;;;;17.51;100.00;97795.22;5084429;28;20455;-58
2022/06/01 06:25:50;;;;;;;;;;;;;;;17.80;100.00;97804.44;5081067;28;19925;-58
2022/06/01 06:28:16;;;;;;;;;;;;;;;18.17;100.00;97788.78;5081361;28;19952;-57
2022/06/01 06:30:44;;;;;;;;;;;;;;;18.43;100.00;97791.56;5066340;28;19999;-58
2022/06/01 06:33:10;;;;;;;;;;;;;;;18.04;100.00;97793.22;5084609;28;20106;-58
2022/06/01 06:35:37;;;;;;;;;;;;;;;17.78;100.00;97795.03;5082506;28;19959;-58
2022/06/01 06:38:04;;;;;;;;;;;;;;;18.31;100.00;97781.38;5081203;28;20046;-58
2022/06/01 06:40:30;;;;;;;;;;;;;;;18.35;100.00;97787.75;5082432;28;19924;-58
2022/06/01 06:42:56;;;;;;;;;;;;;;;18.20;100.00;97791.66;5089226;28;20017;-58
2022/06/01 06:45:23;;;;;;;;;;;;;;;17.89;100.00;97795.56;5084167;28;19959;-57
2022/06/01 06:47:51;;;;;;;;;;;;;;;17.61;100.00;97794.97;5081020;28;20004;-58
2022/06/01 06:50:18;;;;;;;;;;;;;;;17.82;100.00;97801.44;5080946;28;19992;-57
2022/06/01 06:52:45;;;;;;;;;;;;;;;18.23;100.00;97796.44;5083287;28;19925;-58
2022/06/01 06:55:11;;;;;;;;;;;;;;;18.53;100.00;97785.88;5084493;28;19959;-58
2022/06/01 06:57:38;;;;;;;;;;;;;;;18.83;100.00;97787.63;5081991;28;19928;-58
2022/06/01 07:00:07;;;;;;;;;;;;;;;18.56;100.00;97788.75;5080969;28;20019;-57
2022/06/01 07:02:36;;;;;;;;;;;;;;;18.57;100.00;97784.13;5082592;28;19996;-58
2022/06/01 07:05:04;;;;;;;;;;;;;;;19.51;100.00;97788.66;5084383;28;19920;-58
2022/06/01 07:07:31;;;;;;;;;;;;;;;20.15;100.00;97794.75;5082813;28;19956;-57
2022/06/01 07:09:57;;;;;;;;;;;;;;;20.29;100.00;97788.00;5080838;28;20075;-58
2022/06/01 07:12:25;;;;;;;;;;;;;;;20.43;100.00;97793.16;5085807;28;19984;-58
2022/06/01 07:14:52;;;;;;;;;;;;;;;20.52;100.00;97788.47;5084080;28;19983;-59
2022/06/01 07:17:18;;;;;;;;;;;;;;;20.55;100.00;97789.75;5084118;28;19928;-59
2022/06/01 07:19:44;;;;;;;;;;;;;;;20.66;100.00;97799.09;5062900;28;20035;-59
2022/06/01 07:22:12;;;;;;;;;;;;;;;20.63;100.00;97794.31;5080625;28;19924;-59
2022/06/01 07:24:38;;;;;;;;;;;;;;;20.67;100.00;97787.91;5082838;28;19988;-59
2022/06/01 07:27:05;;;;;;;;;;;;;;;20.83;100.00;97793.50;5084046;28;19925;-59
2022/06/01 07:29:31;;;;;;;;;;;;;;;20.56;100.00;97788.63;5082285;28;19955;-59
2022/06/01 07:31:58;;;;;;;;;;;;;;;20.79;100.00;97793.41;5080437;28;19996;-58
2022/06/01 07:34:24;;;;;;;;;;;;;;;20.76;100.00;97785.91;5080733;28;19955;-58
2022/06/01 07:36:50;;;;;;;;;;;;;;;20.07;100.00;97793.69;5083416;28;19992;-59
2022/06/01 07:44:50;;;;;;;;;;;;;;;20.53;100.00;97794.69;5079739;28;19955;-58
2022/06/01 07:47:17;;;;;;;;;;;;;;;20.70;100.00;97795.38;5079750;28;19921;-58
2022/06/01 07:49:43;;;;;;;;;;;;;;;21.22;100.00;97800.38;5082453;28;19980;-59
2022/06/01 07:52:11;;;;;;;;;;;;;;;21.48;100.00;97798.19;5083095;28;19924;-58
2022/06/01 07:54:39;;;;;;;;;;;;;;;20.51;100.00;97791.53;5080930;28;19963;-57
2022/06/01 07:57:05;;;;;;;;;;;;;;;19.75;100.00;97786.97;5079720;28;19958;-58
2022/06/01 07:59:32;;;;;;;;;;;;;;;19.33;100.00;97794.09;5080861;28;19952;-58
2022/06/01 08:01:58;;;;;;;;;;;;;;;19.35;100.00;97793.75;5082767;28;19938;-58
2022/06/01 08:04:26;;;;;;;;;;;;;;;19.18;100.00;97794.59;5082161;28;19987;-58
2022/06/01 08:06:52;;;;;;;;;;;;;;;19.26;100.00;97798.41;5079397;28;19959;-57
2022/06/01 08:09:19;;;;;;;;;;;;;;;19.31;100.00;97798.25;5079404;28;20015;-58
2022/06/01 08:14:33;;;;;;;;;;;;;;;19.63;100.00;97794.19;5071914;28;19925;-59
2022/06/01 08:16:59;;;;;;;;;;;;;;;19.43;100.00;97798.41;5082750;28;19931;-59
2022/06/01 08:19:26;;;;;;;;;;;;;;;19.32;100.00;97800.63;5081795;28;19987;-59
2022/06/01 08:21:52;;;;;;;;;;;;;;;20.01;100.00;97795.00;5079183;28;19992;-57
2022/06/01 08:24:19;;;;;;;;;;;;;;;20.95;100.00;97780.78;5079085;28;19952;-58
2022/06/01 08:26:47;;;;;;;;;;;;;;;21.43;100.00;97796.50;5082244;28;19924;-58
2022/06/01 08:29:13;;;;;;;;;;;;;;;21.20;100.00;97791.78;5082253;28;19924;-59
2022/06/01 08:31:39;;;;;;;;;;;;;;;20.11;100.00;97797.34;5079610;28;19974;-59
2022/06/01 08:34:06;;;;;;;;;;;;;;;20.04;100.00;97793.53;5078881;28;19964;-59
2022/06/01 08:36:32;;;;;;;;;;;;;;;20.10;100.00;97798.44;5080285;28;19975;-58
2022/06/01 08:38:59;;;;;;;;;;;;;;;20.41;100.00;97790.81;5082227;28;19975;-59
2022/06/01 08:41:29;;;;;;;;;;;;;;;20.14;100.00;97790.47;5081576;28;19932;-58
2022/06/01 08:43:59;;;;;;;;;;;;;;;21.54;100.00;97785.97;5083385;28;19996;-58
2022/06/01 08:46:26;;;;;;;;;;;;;;;21.91;100.00;97789.56;5079317;28;19925;-59
2022/06/01 08:48:54;;;;;;;;;;;;;;;21.88;100.00;97791.03;5081456;28;19921;-58
2022/06/01 08:51:24;;;;;;;;;;;;;;;22.20;100.00;97789.34;5081698;28;19971;-59
2022/06/01 08:53:51;;;;;;;;;;;;;;;21.35;100.00;97783.78;5078016;28;19924;-59
2022/06/01 08:56:20;;;;;;;;;;;;;;;20.76;100.00;97788.63;5078078;28;19948;-59
2022/06/01 08:58:55;;;;;;;;;;;;;;;20.50;100.00;97785.31;5077775;28;19924;-59
2022/06/01 09:01:27;;;;;;;;;;;;;;;21.07;100.00;97793.63;5078201;28;19928;-59
2022/06/01 09:04:05;;;;;;;;;;;;;;;20.52;100.00;97785.00;5081313;28;19960;-59
2022/06/01 09:06:35;;;;;;;;;;;;;;;21.16;100.00;97782.72;5080147;28;19956;-59
2022/06/01 09:09:06;;;;;;;;;;;;;;;21.43;100.00;97782.91;5078034;28;19953;-58
2022/06/01 09:11:34;;;;;;;;;;;;;;;20.87;100.00;97776.22;5079528;28;19948;-58
2022/06/01 09:14:05;;;;;;;;;;;;;;;21.46;100.00;97774.09;5083894;28;19984;-58
2022/06/01 09:16:34;;;;;;;;;;;;;;;21.85;100.00;97782.75;5078903;28;20002;-58
2022/06/01 09:19:01;;;;;;;;;;;;;;;22.22;100.00;97775.41;5081365;28;19924;-58
2022/06/01 09:24:16;;;;;;;;;;;;;;;22.96;97.53;97758.56;5060052;28;19925;-59
2022/06/01 09:26:50;;;;;;;;;;;;;;;22.27;96.14;97764.28;5080599;28;19925;-59
2022/06/01 09:29:19;;;;;;;;;;;;;;;22.26;100.00;97774.38;5080897;28;19980;-58
2022/06/01 09:31:48;;;;;;;;;;;;;;;22.88;99.62;97765.72;5077416;28;19991;-58
2022/06/01 09:34:17;;;;;;;;;;;;;;;22.47;94.89;97764.13;5077456;28;19956;-58
2022/06/01 09:36:53;;;;;;;;;;;;;;;22.62;99.15;97759.13;5080402;28;19979;-58
2022/06/01 09:39:20;;;;;;;;;;;;;;;22.58;98.95;97767.16;5081097;28;19920;-58
2022/06/01 09:41:46;;;;;;;;;;;;;;;22.32;94.96;97767.56;5077596;28;19925;-59
2022/06/01 09:44:17;;;;;;;;;;;;;;;22.14;95.62;97773.59;5082297;28;19932;-59
2022/06/01 09:46:55;;;;;;;;;;;;;;;22.31;94.27;97765.97;5080775;28;19932;-59
2022/06/01 09:49:25;;;;;;;;;;;;;;;22.27;83.74;97756.13;5080850;28;19924;-59
2022/06/01 09:51:54;;;;;;;;;;;;;;;22.64;87.28;97767.72;5077727;28;19925;-59
2022/06/01 09:54:25;;;;;;;;;;;;;;;23.00;82.09;97762.16;5077740;28;19970;-59
2022/06/01 09:56:52;;;;;;;;;;;;;;;23.39;81.61;97764.06;5060777;28;19984;-59
2022/06/01 10:07:48;;;;;;;;;;;;;;;23.42;62.97;97754.38;5080723;28;19925;-58
2022/06/01 10:10:23;;;;;;;;;;;;;;;23.47;70.07;97762.28;5081117;28;19924;-58
2022/06/01 10:12:52;;;;;;;;;;;;;;;23.65;66.03;97753.41;5081299;28;19991;-58
2022/06/01 10:15:23;;;;;;;;;;;;;;;23.70;66.73;97757.03;5080935;28;19984;-58
2022/06/01 10:17:53;;;;;;;;;;;;;;;24.09;62.17;97756.81;5076279;28;20056;-58
2022/06/01 10:20:21;;;;;;;;;;;;;;;24.14;59.51;97747.59;5077276;28;19988;-58
2022/06/01 10:23:00;;;;;;;;;;;;;;;24.09;60.40;97754.09;5068879;28;19924;-59
2022/06/01 10:25:28;;;;;;;;;;;;;;;24.21;59.50;97741.50;5069106;28;19925;-58
2022/06/01 10:27:56;;;;;;;;;;;;;;;24.02;58.16;97750.41;5071122;28;19959;-58
2022/06/01 10:30:25;;;;;;;;;;;;;;;24.02;59.60;97750.41;5072481;28;19963;-58
2022/06/01 10:32:58;;;;;;;;;;;;;;;24.01;58.55;97748.84;5072524;28;19956;-58
2022/06/01 10:35:30;;;;;;;;;;;;;;;24.10;55.85;97743.97;5072677;28;20012;-59
2022/06/01 10:38:03;;;;;;;;;;;;;;;24.06;57.78;97743.91;5072532;28;19947;-59
2022/06/01 10:40:35;;;;;;;;;;;;;;;24.27;55.55;97729.97;5072135;28;19968;-58
2022/06/01 10:43:20;;;;;;;;;;;;;;;24.33;53.86;97739.44;5082302;28;19956;-59
2022/06/01 10:45:49;;;;;;;;;;;;;;;24.23;51.87;97734.56;5062195;28;19960;-58
2022/06/01 10:48:21;;;;;;;;;;;;;;;24.23;53.13;97720.94;5080115;28;19932;-59
2022/06/01 10:50:51;;;;;;;;;;;;;;;24.34;52.60;97735.59;5080048;28;19925;-58
2022/06/01 10:53:21;;;;;;;;;;;;;;;24.40;51.92;97728.69;5080095;28;19959;-57
2022/06/01 10:55:49;;;;;;;;;;;;;;;24.48;51.88;97724.19;5079948;28;19924;-58
2022/06/01 10:58:18;;;;;;;;;;;;;;;24.58;50.69;97713.47;5080096;28;19924;-59
2022/06/01 11:00:48;;;;;;;;;;;;;;;24.49;51.85;97712.09;5083024;28;19921;-59
2022/06/01 11:03:26;;;;;;;;;;;;;;;24.61;50.89;97711.97;5083425;28;19920;-58
2022/06/01 11:05:59;;;;;;;;;;;;;;;24.51;51.76;97713.31;5079853;28;19988;-58
2022/06/01 11:08:31;;;;;;;;;;;;;;;24.44;50.39;97712.41;5080303;28;19925;-58
2022/06/01 11:11:04;;;;;;;;;;;;;;;24.42;51.40;97712.75;5083353;28;19960;-58
2022/06/01 11:13:37;;;;;;;;;;;;;;;24.51;50.86;97707.88;5086942;28;19988;-58
2022/06/01 11:16:12;;;;;;;;;;;;;;;24.55;50.03;97708.75;5079636;28;19991;-58
2022/06/01 11:18:49;;;;;;;;;;;;;;;24.51;50.90;97701.63;5081882;28;19931;-58
2022/06/01 11:21:20;;;;;;;;;;;;;;;24.50;51.14;97706.31;5082974;28;19991;-58
2022/06/01 11:23:54;;;;;;;;;;;;;;;24.46;50.90;97699.97;5079625;28;19971;-59
2022/06/01 11:26:27;;;;;;;;;;;;;;;24.46;51.57;97710.09;5079669;28;19928;-58
2022/06/01 11:29:00;;;;;;;;;;;;;;;24.55;51.02;97697.03;5062699;28;19931;-58
2022/06/01 11:31:28;;;;;;;;;;;;;;;24.49;50.36;97693.78;5080341;28;20011;-58
2022/06/01 11:34:00;;;;;;;;;;;;;;;24.58;50.44;97694.38;5082966;28;19952;-58
2022/06/01 11:36:31;;;;;;;;;;;;;;;24.61;49.65;97690.91;5082280;28;19952;-59
2022/06/01 11:39:01;;;;;;;;;;;;;;;24.55;50.23;97697.81;5078807;28;19948;-59
2022/06/01 11:41:31;;;;;;;;;;;;;;;24.73;50.01;97691.94;5080171;28;20027;-59
2022/06/01 11:44:00;;;;;;;;;;;;;;;24.49;51.20;97691.06;5085911;28;19932;-58
2022/06/01 11:46:36;;;;;;;;;;;;;;;24.52;50.78;97682.16;5079840;28;19927;-59
2022/06/01 11:49:06;;;;;;;;;;;;;;;24.50;50.35;97689.91;5082364;28;19980;-58
2022/06/01 11:51:45;;;;;;;;;;;;;;;24.62;50.97;97684.31;5080744;28;19925;-58
2022/06/01 11:54:14;;;;;;;;;;;;;;;24.47;51.94;97679.72;5078935;28;19956;-58
2022/06/01 11:56:44;;;;;;;;;;;;;;;24.53;51.75;97672.81;5081457;28;19924;-58
2022/06/01 11:59:15;;;;;;;;;;;;;;;24.45;51.28;97679.28;5082356;28;19925;-59
2022/06/01 12:01:47;;;;;;;;;;;;;;;24.61;50.56;97673.75;5079464;28;19933;-59
2022/06/01 12:04:25;;;;;;;;;;;;;;;24.50;51.27;97679.00;5078729;28;20399;-59
2022/06/01 12:06:58;;;;;;;;;;;;;;;24.84;48.74;97673.84;5070317;28;19947;-59
2022/06/01 12:09:42;;;;;;;;;;;;;;;24.59;51.05;97676.06;5070409;28;19925;-59
2022/06/01 12:12:23;;;;;;;;;;;;;;;24.66;50.63;97659.81;5063701;28;19946;-58
2022/06/01 12:14:56;;;;;;;;;;;;;;;24.64;50.68;97659.38;5070276;28;19971;-58
2022/06/01 12:17:33;;;;;;;;;;;;;;;24.58;50.77;97658.88;5070187;28;19980;-58
2022/06/01 12:20:33;;;;;;;;;;;;;;;24.73;48.49;97651.72;5070016;28;19974;-58
2022/06/01 12:28:48;;;;;;;;;;;;;;;24.83;48.60;97650.41;5057782;28;19925;-59
2022/06/01 12:31:15;;;;;;;;;;;;;;;24.76;49.46;97652.97;5070125;28;20001;-59
2022/06/01 12:34:03;;;;;;;;;;;;;;;24.58;49.75;97647.94;5069940;28;20083;-59
2022/06/01 12:36:31;;;;;;;;;;;;;;;24.69;49.37;97643.50;5079175;28;19935;-58
2022/06/01 12:38:59;;;;;;;;;;;;;;;24.77;48.50;97635.41;5081509;28;19987;-58
2022/06/01 12:41:28;;;;;;;;;;;;;;;24.55;49.58;97628.75;5081050;28;19920;-59
2022/06/01 12:43:56;;;;;;;;;;;;;;;24.65;51.14;97626.25;5064936;28;19960;-58
2022/06/01 12:46:26;;;;;;;;;;;;;;;24.55;49.58;97635.03;5078216;28;19988;-59
2022/06/01 12:49:14;;;;;;;;;;;;;;;24.57;49.96;97634.69;5081040;28;19930;-58
2022/06/01 12:51:41;;;;;;;;;;;;;;;24.76;49.31;97626.44;5078113;28;19992;-58
2022/06/01 12:54:08;;;;;;;;;;;;;;;24.78;46.99;97612.44;5077929;28;19955;-58
2022/06/01 12:56:37;;;;;;;;;;;;;;;24.63;49.60;97625.81;5079487;28;19964;-59
2022/06/01 12:59:14;;;;;;;;;;;;;;;24.72;49.43;97617.41;5081006;28;19996;-58
2022/06/01 13:01:40;;;;;;;;;;;;;;;24.45;50.21;97621.19;5078822;28;19943;-58
2022/06/01 13:04:06;;;;;;;;;;;;;;;24.57;50.72;97621.03;5077790;28;19924;-58
2022/06/01 13:06:34;;;;;;;;;;;;;;;24.65;49.80;97623.53;5079445;28;19921;-59
2022/06/01 13:09:02;;;;;;;;;;;;;;;24.53;50.08;97617.44;5081553;28;19928;-59
2022/06/01 13:11:30;;;;;;;;;;;;;;;24.42;49.78;97619.94;5080534;28;19936;-59
2022/06/01 13:13:59;;;;;;;;;;;;;;;24.42;50.29;97617.22;5074405;28;20028;-59
2022/06/01 13:16:33;;;;;;;;;;;;;;;24.68;49.44;97628.25;5078228;28;20676;-59
2022/06/01 13:19:14;;;;;;;;;;;;;;;24.71;49.35;97619.34;5081222;28;19928;-59
2022/06/01 13:21:40;;;;;;;;;;;;;;;24.98;49.00;97606.56;5078698;28;20099;-59